createdAt,value
2018-04-01T00:02:32.205Z,9.01
2018-04-01T00:05:34.301Z,8.96
2018-04-01T00:08:36.413Z,8.95
2018-04-01T00:11:38.522Z,9.03
2018-04-01T00:14:40.661Z,9.01
2018-04-01T00:17:42.756Z,9.00
2018-04-01T00:20:44.873Z,8.94
2018-04-01T00:23:47.026Z,8.89
2018-04-01T00:26:49.117Z,8.90
2018-04-01T00:29:51.251Z,8.93
2018-04-01T00:32:53.532Z,8.90
2018-04-01T00:35:55.634Z,8.84
2018-04-01T00:38:58.766Z,8.85
2018-04-01T00:42:01.910Z,8.79
2018-04-01T00:45:04.094Z,8.81
2018-04-01T00:48:06.181Z,8.81
2018-04-01T00:51:08.295Z,8.82
2018-04-01T00:54:10.513Z,8.82
2018-04-01T00:57:12.618Z,8.87
2018-04-01T01:00:14.771Z,8.91
2018-04-01T01:03:17.337Z,8.90
2018-04-01T01:06:19.459Z,8.99
2018-04-01T01:09:21.609Z,8.93
2018-04-01T01:12:23.748Z,8.98
2018-04-01T01:15:25.855Z,8.94
2018-04-01T01:18:27.954Z,8.96
2018-04-01T01:21:30.061Z,9.01
2018-04-01T01:24:32.201Z,9.04
2018-04-01T01:27:34.317Z,8.99
2018-04-01T01:30:36.446Z,9.01
2018-04-01T01:33:38.567Z,8.96
2018-04-01T01:36:40.817Z,8.93
2018-04-01T01:39:42.970Z,9.02
2018-04-01T01:42:45.453Z,9.06
2018-04-01T01:45:47.575Z,9.04
2018-04-01T01:48:49.685Z,8.95
2018-04-01T01:51:51.957Z,9.07
2018-04-01T01:54:54.454Z,8.98
2018-04-01T01:57:56.566Z,8.98
2018-04-01T02:00:58.683Z,8.96
2018-04-01T02:04:00.853Z,9.05
2018-04-01T02:07:02.949Z,8.95
2018-04-01T02:10:05.059Z,8.87
2018-04-01T02:13:07.162Z,8.87
2018-04-01T02:16:09.300Z,8.78
2018-04-01T02:19:11.418Z,8.67
2018-04-01T02:22:13.520Z,8.63
2018-04-01T02:25:15.647Z,8.61
2018-04-01T02:28:17.762Z,8.57
2018-04-01T02:31:19.907Z,8.58
2018-04-01T02:34:22.002Z,8.57
2018-04-01T02:37:24.176Z,8.59
2018-04-01T02:40:26.297Z,8.42
2018-04-01T02:43:28.407Z,8.43
2018-04-01T02:46:30.507Z,8.35
2018-04-01T02:49:32.626Z,8.33
2018-04-01T02:52:34.722Z,8.33
2018-04-01T02:55:36.918Z,8.24
2018-04-01T02:58:39.024Z,8.16
2018-04-01T03:01:41.131Z,8.17
2018-04-01T03:04:43.257Z,8.16
2018-04-01T03:07:45.370Z,8.15
2018-04-01T03:10:47.483Z,8.13
2018-04-01T03:13:49.678Z,8.12
2018-04-01T03:16:51.846Z,8.09
2018-04-01T03:19:53.953Z,8.11
2018-04-01T03:22:56.093Z,8.10
2018-04-01T03:25:58.215Z,8.05
2018-04-01T03:29:00.309Z,8.07
2018-04-01T03:32:02.413Z,8.08
2018-04-01T03:35:04.542Z,8.09
2018-04-01T03:38:06.677Z,8.08
2018-04-01T03:41:08.813Z,8.08
2018-04-01T03:44:10.903Z,8.10
2018-04-01T03:47:13.034Z,8.09
2018-04-01T03:50:15.143Z,8.07
2018-04-01T03:53:17.253Z,8.07
2018-04-01T03:56:19.371Z,8.05
2018-04-01T03:59:21.490Z,8.07
2018-04-01T04:02:23.584Z,8.03
2018-04-01T04:05:25.701Z,8.02
2018-04-01T04:08:27.832Z,8.00
2018-04-01T04:11:29.929Z,8.03
2018-04-01T04:14:32.054Z,8.07
2018-04-01T04:17:34.292Z,8.03
2018-04-01T04:20:36.372Z,8.05
2018-04-01T04:23:38.518Z,8.06
2018-04-01T04:26:40.602Z,8.04
2018-04-01T04:29:42.734Z,8.07
2018-04-01T04:32:44.840Z,8.05
2018-04-01T04:35:46.961Z,8.03
2018-04-01T04:38:49.128Z,7.95
2018-04-01T04:41:51.290Z,7.95
2018-04-01T04:44:53.377Z,7.91
2018-04-01T04:47:55.543Z,7.90
2018-04-01T04:50:57.647Z,7.93
2018-04-01T04:53:59.793Z,7.97
2018-04-01T04:57:01.893Z,7.91
2018-04-01T05:00:04.004Z,7.96
2018-04-01T05:03:06.110Z,7.97
2018-04-01T05:06:08.232Z,7.93
2018-04-01T05:09:10.348Z,7.95
2018-04-01T05:12:12.514Z,8.00
2018-04-01T05:15:14.646Z,8.05
2018-04-01T05:18:16.877Z,8.09
2018-04-01T05:21:18.998Z,8.09
2018-04-01T05:24:21.174Z,8.07
2018-04-01T05:27:23.418Z,8.08
2018-04-01T05:30:25.558Z,8.04
2018-04-01T05:33:27.691Z,7.99
2018-04-01T05:36:29.780Z,7.97
2018-04-01T05:39:31.885Z,7.91
2018-04-01T05:42:34.009Z,7.89
2018-04-01T05:45:36.447Z,7.81
2018-04-01T05:48:38.633Z,7.89
2018-04-01T05:51:40.776Z,7.90
2018-04-01T05:54:42.901Z,8.06
2018-04-01T05:57:45.013Z,8.08
2018-04-01T06:00:47.112Z,8.01
2018-04-01T06:03:49.227Z,8.04
2018-04-01T06:06:51.385Z,8.03
2018-04-01T06:09:53.453Z,8.02
2018-04-01T06:12:55.596Z,8.05
2018-04-01T06:15:57.751Z,8.06
2018-04-01T06:18:59.896Z,8.11
2018-04-01T06:22:02.030Z,8.22
2018-04-01T06:25:04.154Z,8.31
2018-04-01T06:28:06.261Z,8.38
2018-04-01T06:31:08.380Z,8.37
2018-04-01T06:34:10.495Z,8.34
2018-04-01T06:37:12.648Z,8.33
2018-04-01T06:40:14.763Z,8.30
2018-04-01T06:43:16.862Z,8.29
2018-04-01T06:46:18.977Z,8.35
2018-04-01T06:49:21.124Z,8.35
2018-04-01T06:52:23.210Z,8.44
2018-04-01T06:55:25.320Z,8.41
2018-04-01T06:58:27.631Z,8.47
2018-04-01T07:01:30.076Z,8.47
2018-04-01T07:04:32.193Z,8.51
2018-04-01T07:07:34.715Z,8.37
2018-04-01T07:10:37.775Z,8.42
2018-04-01T07:13:39.860Z,8.32
2018-04-01T07:16:41.976Z,8.25
2018-04-01T07:19:44.082Z,8.18
2018-04-01T07:22:46.263Z,8.15
2018-04-01T07:25:48.366Z,8.19
2018-04-01T07:28:50.541Z,8.11
2018-04-01T07:31:52.695Z,8.15
2018-04-01T07:34:54.823Z,8.14
2018-04-01T07:37:56.946Z,8.12
2018-04-01T07:40:59.066Z,8.16
2018-04-01T07:44:01.188Z,8.23
2018-04-01T07:47:03.297Z,8.23
2018-04-01T07:50:05.413Z,8.19
2018-04-01T07:53:07.641Z,8.22
2018-04-01T07:56:09.740Z,8.31
2018-04-01T07:59:11.852Z,8.36
2018-04-01T08:02:13.992Z,8.42
2018-04-01T08:05:16.182Z,8.32
2018-04-01T08:08:18.293Z,8.41
2018-04-01T08:11:20.394Z,8.49
2018-04-01T08:14:22.566Z,8.56
2018-04-01T08:17:24.697Z,8.57
2018-04-01T08:20:26.805Z,8.59
2018-04-01T08:23:28.916Z,8.72
2018-04-01T08:26:31.134Z,8.77
2018-04-01T08:29:33.235Z,8.90
2018-04-01T08:32:35.348Z,8.94
2018-04-01T08:35:37.461Z,8.94
2018-04-01T08:38:39.556Z,8.97
2018-04-01T08:41:41.669Z,8.93
2018-04-01T08:44:43.911Z,8.87
2018-04-01T08:47:46.005Z,8.78
2018-04-01T08:50:48.114Z,8.63
2018-04-01T08:53:50.215Z,8.56
2018-04-01T08:56:52.325Z,8.49
2018-04-01T08:59:54.444Z,8.58
2018-04-01T09:02:56.610Z,8.49
2018-04-01T09:05:59.005Z,8.52
2018-04-01T09:09:01.120Z,8.72
2018-04-01T09:12:03.388Z,8.82
2018-04-01T09:15:05.654Z,8.94
2018-04-01T09:18:07.860Z,9.08
2018-04-01T09:21:09.954Z,9.17
2018-04-01T09:24:12.078Z,9.13
2018-04-01T09:27:14.231Z,9.13
2018-04-01T09:30:16.506Z,9.06
2018-04-01T09:33:18.674Z,9.07
2018-04-01T09:36:20.843Z,9.10
2018-04-01T09:39:22.951Z,9.11
2018-04-01T09:42:25.094Z,9.12
2018-04-01T09:45:27.199Z,9.25
2018-04-01T09:48:29.325Z,9.36
2018-04-01T09:51:31.455Z,9.47
2018-04-01T09:54:33.572Z,9.54
2018-04-01T09:57:35.736Z,9.42
2018-04-01T10:00:41.406Z,9.54
2018-04-01T10:03:44.551Z,9.76
2018-04-01T10:06:47.880Z,9.91
2018-04-01T10:09:52.435Z,9.90
2018-04-01T10:12:55.656Z,9.93
2018-04-01T10:15:58.874Z,10.00
2018-04-01T10:19:02.369Z,10.12
2018-04-01T10:22:06.363Z,10.02
2018-04-01T10:25:09.661Z,10.09
2018-04-01T10:28:12.944Z,10.05
2018-04-01T10:31:16.291Z,10.04
2018-04-01T10:34:19.545Z,9.67
2018-04-01T10:37:23.160Z,9.62
2018-04-01T10:40:26.744Z,9.53
2018-04-01T10:43:30.076Z,9.71
2018-04-01T10:46:33.353Z,9.98
2018-04-01T10:49:36.560Z,10.27
2018-04-01T10:52:39.849Z,10.35
2018-04-01T10:55:41.967Z,10.52
2018-04-01T10:58:44.056Z,10.70
2018-04-01T11:01:46.176Z,10.36
2018-04-01T11:04:48.290Z,10.14
2018-04-01T11:07:50.423Z,10.24
2018-04-01T11:10:52.572Z,10.12
2018-04-01T11:13:54.728Z,10.13
2018-04-01T11:16:56.960Z,10.60
2018-04-01T11:19:59.059Z,11.21
2018-04-01T11:23:01.173Z,11.53
2018-04-01T11:26:03.313Z,11.67
2018-04-01T11:29:05.421Z,11.22
2018-04-01T11:32:07.554Z,11.29
2018-04-01T11:35:09.687Z,11.09
2018-04-01T11:38:11.794Z,10.72
2018-04-01T11:41:13.957Z,10.63
2018-04-01T11:44:16.070Z,10.67
2018-04-01T11:47:18.198Z,10.81
2018-04-01T11:50:20.314Z,10.56
2018-04-01T11:53:22.463Z,10.41
2018-04-01T11:56:24.612Z,10.17
2018-04-01T11:59:26.740Z,9.57
2018-04-01T12:02:28.858Z,9.03
2018-04-01T12:05:30.961Z,9.33
2018-04-01T12:08:33.109Z,9.78
2018-04-01T12:11:35.206Z,9.90
2018-04-01T12:14:37.334Z,9.86
2018-04-01T12:17:39.442Z,10.08
2018-04-01T12:20:41.583Z,10.14
2018-04-01T12:23:43.734Z,10.26
2018-04-01T12:26:45.862Z,10.49
2018-04-01T12:29:47.994Z,10.33
2018-04-01T12:32:50.106Z,10.17
2018-04-01T12:35:52.334Z,10.16
2018-04-01T12:38:54.499Z,9.91
2018-04-01T12:41:56.619Z,9.88
2018-04-01T12:44:58.766Z,9.86
2018-04-01T12:48:00.901Z,9.82
2018-04-01T12:51:03.031Z,9.54
2018-04-01T12:54:05.140Z,9.53
2018-04-01T12:57:07.247Z,9.60
2018-04-01T13:00:09.396Z,9.44
2018-04-01T13:03:11.599Z,9.30
2018-04-01T13:06:13.735Z,9.33
2018-04-01T13:09:15.855Z,9.29
2018-04-01T13:12:18.053Z,9.29
2018-04-01T13:15:20.166Z,9.38
2018-04-01T13:18:22.371Z,9.64
2018-04-01T13:21:24.513Z,9.80
2018-04-01T13:24:26.709Z,9.95
2018-04-01T13:27:28.838Z,10.08
2018-04-01T13:30:30.978Z,10.13
2018-04-01T13:33:33.131Z,10.01
2018-04-01T13:36:35.300Z,9.99
2018-04-01T13:39:37.433Z,10.01
2018-04-01T13:42:39.627Z,10.10
2018-04-01T13:45:41.783Z,10.25
2018-04-01T13:48:43.922Z,10.30
2018-04-01T13:51:46.034Z,10.33
2018-04-01T13:54:48.182Z,10.29
2018-04-01T13:57:50.310Z,10.22
2018-04-01T14:00:52.482Z,10.13
2018-04-01T14:03:54.672Z,10.07
2018-04-01T14:06:56.802Z,10.07
2018-04-01T14:09:58.998Z,10.02
2018-04-01T14:13:01.197Z,9.87
2018-04-01T14:16:03.369Z,9.15
2018-04-01T14:19:05.480Z,9.12
2018-04-01T14:22:07.604Z,9.11
2018-04-01T14:25:09.731Z,9.06
2018-04-01T14:28:11.891Z,8.91
2018-04-01T14:31:14.060Z,9.03
2018-04-01T14:34:16.225Z,9.05
2018-04-01T14:37:18.451Z,9.24
2018-04-01T14:40:20.591Z,9.29
2018-04-01T14:43:22.771Z,9.49
2018-04-01T14:46:24.857Z,9.53
2018-04-01T14:49:26.977Z,9.58
2018-04-01T14:52:29.110Z,9.61
2018-04-01T14:55:31.254Z,9.69
2018-04-01T14:58:33.374Z,9.75
2018-04-01T15:01:35.495Z,9.81
2018-04-01T15:04:37.579Z,9.88
2018-04-01T15:07:39.720Z,9.80
2018-04-01T15:10:41.943Z,9.74
2018-04-01T15:13:44.106Z,9.76
2018-04-01T15:16:46.210Z,9.81
2018-04-01T15:19:48.309Z,9.88
2018-04-01T15:22:50.429Z,10.08
2018-04-01T15:25:52.537Z,10.02
2018-04-01T15:28:54.661Z,10.58
2018-04-01T15:31:56.746Z,11.06
2018-04-01T15:34:58.950Z,11.29
2018-04-01T15:38:01.097Z,11.00
2018-04-01T15:41:03.226Z,10.81
2018-04-01T15:44:05.359Z,10.58
2018-04-01T15:47:07.498Z,10.53
2018-04-01T15:50:09.622Z,10.43
2018-04-01T15:53:11.798Z,10.60
2018-04-01T15:56:14.135Z,11.30
2018-04-01T15:59:16.345Z,11.62
2018-04-01T16:02:18.512Z,11.22
2018-04-01T16:05:20.737Z,10.94
2018-04-01T16:08:23.225Z,10.78
2018-04-01T16:11:25.327Z,10.72
2018-04-01T16:14:27.425Z,10.71
2018-04-01T16:17:29.539Z,10.65
2018-04-01T16:20:31.658Z,10.54
2018-04-01T16:23:33.766Z,10.55
2018-04-01T16:26:35.886Z,10.55
2018-04-01T16:29:37.993Z,10.46
2018-04-01T16:32:40.149Z,10.14
2018-04-01T16:35:42.244Z,9.79
2018-04-01T16:38:44.493Z,9.55
2018-04-01T16:41:46.606Z,9.49
2018-04-01T16:44:48.852Z,9.39
2018-04-01T16:47:50.942Z,9.36
2018-04-01T16:50:53.196Z,9.18
2018-04-01T16:53:55.290Z,9.08
2018-04-01T16:56:57.429Z,9.10
2018-04-01T16:59:59.542Z,9.03
2018-04-01T17:03:01.672Z,8.93
2018-04-01T17:06:03.775Z,8.96
2018-04-01T17:09:05.895Z,9.06
2018-04-01T17:12:07.998Z,9.05
2018-04-01T17:15:10.159Z,9.06
2018-04-01T17:18:12.269Z,8.99
2018-04-01T17:21:14.381Z,9.05
2018-04-01T17:24:16.502Z,9.06
2018-04-01T17:27:18.659Z,9.08
2018-04-01T17:30:20.785Z,9.04
2018-04-01T17:33:22.895Z,9.01
2018-04-01T17:36:24.994Z,8.95
2018-04-01T17:39:27.095Z,8.85
2018-04-01T17:42:29.199Z,8.84
2018-04-01T17:45:31.305Z,8.77
2018-04-01T17:48:33.416Z,8.68
2018-04-01T17:51:35.590Z,8.66
2018-04-01T17:54:37.725Z,8.61
2018-04-01T17:57:39.837Z,8.57
2018-04-01T18:00:41.943Z,8.49
2018-04-01T18:03:44.071Z,8.45
2018-04-01T18:06:46.149Z,8.49
2018-04-01T18:09:48.308Z,8.48
2018-04-01T18:12:50.410Z,8.43
2018-04-01T18:15:52.697Z,8.42
2018-04-01T18:18:54.796Z,8.42
2018-04-01T18:21:56.921Z,8.38
2018-04-01T18:24:59.009Z,8.40
2018-04-01T18:28:01.160Z,8.41
2018-04-01T18:31:03.281Z,8.43
2018-04-01T18:34:05.404Z,8.35
2018-04-01T18:37:07.539Z,8.36
2018-04-01T18:40:09.650Z,8.40
2018-04-01T18:43:11.759Z,8.37
2018-04-01T18:46:13.943Z,8.39
2018-04-01T18:49:16.071Z,8.49
2018-04-01T18:52:19.247Z,8.48
2018-04-01T18:55:21.361Z,8.41
2018-04-01T18:58:23.491Z,8.36
2018-04-01T19:01:25.643Z,8.36
2018-04-01T19:04:27.850Z,8.27
2018-04-01T19:07:30.002Z,8.22
2018-04-01T19:10:32.154Z,8.13
2018-04-01T19:13:34.273Z,8.14
2018-04-01T19:16:45.319Z,8.16
2018-04-01T19:19:48.654Z,8.14
2018-04-01T19:22:51.922Z,8.10
2018-04-01T19:25:55.205Z,8.09
2018-04-01T19:28:58.530Z,8.07
2018-04-01T19:32:01.741Z,8.04
2018-04-01T19:35:05.114Z,7.99
2018-04-01T19:38:08.429Z,7.93
2018-04-01T19:41:11.694Z,7.85
2018-04-01T19:44:14.992Z,7.83
2018-04-01T19:47:18.322Z,7.87
2018-04-01T19:50:21.682Z,7.85
2018-04-01T19:53:24.946Z,7.82
2018-04-01T19:56:28.178Z,7.81
2018-04-01T19:59:31.490Z,7.82
2018-04-01T20:02:34.869Z,7.82
2018-04-01T20:05:38.029Z,7.76
2018-04-01T20:08:41.322Z,7.76
2018-04-01T20:11:44.620Z,7.80
2018-04-01T20:14:47.911Z,7.71
2018-04-01T20:17:51.182Z,7.80
2018-04-01T20:20:54.448Z,7.82
2018-04-01T20:23:57.848Z,7.85
2018-04-01T20:27:01.058Z,7.89
2018-04-01T20:30:04.676Z,7.79
2018-04-01T20:33:08.139Z,7.78
2018-04-01T20:36:11.644Z,7.69
2018-04-01T20:39:15.152Z,7.71
2018-04-01T20:42:18.431Z,7.66
2018-04-01T20:45:22.408Z,7.63
2018-04-01T20:48:26.322Z,7.58
2018-04-01T20:51:29.876Z,7.55
2018-04-01T20:54:33.386Z,7.45
2018-04-01T20:57:36.889Z,7.43
2018-04-01T21:00:40.498Z,7.43
2018-04-01T21:03:44.106Z,7.37
2018-04-01T21:06:47.398Z,7.27
2018-04-01T21:09:50.727Z,7.27
2018-04-01T21:12:54.247Z,7.26
2018-04-01T21:15:57.525Z,7.25
2018-04-01T21:19:00.810Z,7.12
2018-04-01T21:22:04.089Z,7.08
2018-04-01T21:25:07.502Z,7.08
2018-04-01T21:28:10.741Z,7.09
2018-04-01T21:31:13.922Z,7.04
2018-04-01T21:34:17.189Z,7.04
2018-04-01T21:37:20.430Z,6.93
2018-04-01T21:40:23.704Z,6.98
2018-04-01T21:43:26.923Z,6.99
2018-04-01T21:46:30.184Z,6.86
2018-04-01T21:49:33.491Z,6.81
2018-04-01T21:52:36.781Z,6.75
2018-04-01T21:55:40.064Z,6.77
2018-04-01T21:58:43.785Z,6.72
2018-04-01T22:01:47.046Z,6.75
2018-04-01T22:04:50.236Z,6.66
2018-04-01T22:07:53.681Z,6.61
2018-04-01T22:10:56.958Z,6.54
2018-04-01T22:14:00.306Z,6.50
2018-04-01T22:17:03.479Z,6.50
2018-04-01T22:20:07.003Z,6.49
2018-04-01T22:23:13.184Z,6.49
2018-04-01T22:26:16.467Z,6.47
2018-04-01T22:29:19.633Z,6.46
2018-04-01T22:32:23.064Z,6.40
2018-04-01T22:35:26.254Z,6.37
2018-04-01T22:38:29.624Z,6.29
2018-04-01T22:41:32.839Z,6.27
2018-04-01T22:44:36.127Z,6.28
2018-04-01T22:47:39.365Z,6.23
2018-04-01T22:50:42.638Z,6.19
2018-04-01T22:53:45.904Z,6.22
2018-04-01T22:56:49.194Z,6.25
2018-04-01T22:59:52.496Z,6.18
2018-04-01T23:02:55.708Z,6.23
2018-04-01T23:06:05.451Z,6.22
2018-04-01T23:09:10.318Z,6.20
2018-04-01T23:12:13.652Z,6.14
2018-04-01T23:15:16.976Z,6.08
2018-04-01T23:18:23.916Z,6.10
2018-04-01T23:21:30.285Z,6.03
2018-04-01T23:24:39.899Z,6.00
2018-04-01T23:27:59.349Z,6.08
2018-04-01T23:31:03.591Z,6.15
2018-04-01T23:34:16.705Z,6.21
2018-04-01T23:37:20.378Z,6.19
2018-04-01T23:40:29.523Z,6.20
2018-04-01T23:43:32.830Z,6.26
2018-04-01T23:46:36.118Z,6.36
2018-04-01T23:49:39.344Z,6.43
2018-04-01T23:52:46.308Z,6.48
2018-04-01T23:55:49.508Z,6.51
2018-04-01T23:58:58.616Z,6.55
